Time;durP1;ratioP1;P1;durP2;ratioP2;P2;SDS_P1;SDS_P2;PMS_P1;PMS_P2;Temp;Humidity;BMP_temperature;BMP_pressure;BME280_temperature;BME280_humidity;BME280_pressure;Samples;Min_cycle;Max_cycle;Signal;HPM_P1;HPM_P2
2022/11/12 00:00:42;;;;;;;89.00;12.38;;;;;;;;;;7390285;19;20029;-80
2022/11/12 00:03:08;;;;;;;43.20;13.23;;;;;;;;;;7392094;19;20003;-78
2022/11/12 00:05:33;;;;;;;39.05;12.07;;;;;;;;;;7388864;19;19995;-78
2022/11/12 00:07:59;;;;;;;29.13;11.80;;;;;;;;;;7388771;19;20072;-79
2022/11/12 00:10:24;;;;;;;27.63;10.95;;;;;;;;;;7388922;19;19998;-79
2022/11/12 00:12:50;;;;;;;27.63;10.43;;;;;;;;;;7386693;19;20002;-78
2022/11/12 00:15:15;;;;;;;36.20;11.07;;;;;;;;;;7386594;19;20018;-78
2022/11/12 00:17:41;;;;;;;42.97;10.90;;;;;;;;;;7388532;19;20074;-79
2022/11/12 00:20:10;;;;;;;33.67;10.10;;;;;;;;;;7388438;19;20011;-79
2022/11/12 00:22:35;;;;;;;34.63;9.60;;;;;;;;;;7387375;19;20648;-79
2022/11/12 00:25:01;;;;;;;25.02;10.40;;;;;;;;;;7388307;19;19999;-78
2022/11/12 00:27:26;;;;;;;25.67;9.85;;;;;;;;;;7386971;19;20003;-78
2022/11/12 00:29:54;;;;;;;23.02;8.95;;;;;;;;;;7388013;19;19998;-79
2022/11/12 00:32:19;;;;;;;24.52;9.27;;;;;;;;;;7384814;19;20006;-78
2022/11/12 00:34:45;;;;;;;32.53;8.85;;;;;;;;;;7388197;19;20023;-77
2022/11/12 00:37:10;;;;;;;21.08;8.60;;;;;;;;;;7388163;19;20468;-79
2022/11/12 00:39:38;;;;;;;20.27;8.65;;;;;;;;;;7385919;19;19995;-78
2022/11/12 00:42:03;;;;;;;20.67;9.02;;;;;;;;;;7382803;19;20023;-78
2022/11/12 00:44:31;;;;;;;51.35;9.75;;;;;;;;;;7385590;19;19999;-78
2022/11/12 00:46:57;;;;;;;28.30;9.40;;;;;;;;;;7386010;19;20020;-80
2022/11/12 00:49:22;;;;;;;24.30;9.18;;;;;;;;;;7388897;19;20006;-78
2022/11/12 00:51:48;;;;;;;18.45;8.98;;;;;;;;;;7391260;19;20003;-79
2022/11/12 00:54:14;;;;;;;24.77;9.15;;;;;;;;;;7393402;19;19999;-80
2022/11/12 00:56:39;;;;;;;31.05;9.80;;;;;;;;;;7396501;19;20464;-79
2022/11/12 00:59:04;;;;;;;25.33;9.68;;;;;;;;;;7395355;19;20006;-79
2022/11/12 01:01:30;;;;;;;27.55;10.02;;;;;;;;;;7392786;19;20596;-79
2022/11/12 01:03:57;;;;;;;22.38;9.32;;;;;;;;;;7395666;19;20002;-80
2022/11/12 01:06:22;;;;;;;31.20;9.63;;;;;;;;;;7393807;19;20034;-80
2022/11/12 01:08:48;;;;;;;25.05;9.98;;;;;;;;;;7393480;19;20496;-81
2022/11/12 01:11:23;;;;;;;27.30;9.07;;;;;;;;;;7393391;19;20070;-80
2022/11/12 01:13:55;;;;;;;27.52;10.02;;;;;;;;;;7395867;19;20337;-79
2022/11/12 01:16:22;;;;;;;27.92;9.70;;;;;;;;;;7395512;19;20012;-79
2022/11/12 01:18:56;;;;;;;25.30;9.90;;;;;;;;;;7395702;19;20436;-79
2022/11/12 01:21:23;;;;;;;31.80;11.15;;;;;;;;;;7392792;19;19998;-80
2022/11/12 01:23:48;;;;;;;48.03;11.00;;;;;;;;;;7395562;19;20479;-80
2022/11/12 01:26:17;;;;;;;26.95;10.20;;;;;;;;;;7394819;19;20062;-79
2022/11/12 01:28:43;;;;;;;31.48;11.05;;;;;;;;;;7394589;19;20350;-79
2022/11/12 01:31:20;;;;;;;69.60;11.82;;;;;;;;;;7394203;19;20003;-79
2022/11/12 01:33:47;;;;;;;52.50;10.80;;;;;;;;;;7394618;19;20003;-78
2022/11/12 01:36:21;;;;;;;28.10;10.18;;;;;;;;;;7394375;19;20013;-78
2022/11/12 01:38:47;;;;;;;34.75;10.43;;;;;;;;;;7392557;19;20113;-80
2022/11/12 01:41:16;;;;;;;31.83;10.82;;;;;;;;;;7392162;19;20031;-79
2022/11/12 01:43:41;;;;;;;35.17;11.00;;;;;;;;;;7401631;19;20007;-79
2022/11/12 01:46:26;;;;;;;25.92;10.15;;;;;;;;;;7404527;19;20345;-79
2022/11/12 01:48:58;;;;;;;33.45;9.48;;;;;;;;;;7396769;19;20010;-79
2022/11/12 01:51:31;;;;;;;35.40;9.93;;;;;;;;;;7382871;19;20058;-79
2022/11/12 01:54:00;;;;;;;33.67;10.98;;;;;;;;;;7394190;19;20015;-79
2022/11/12 01:56:29;;;;;;;49.67;10.98;;;;;;;;;;7393980;19;20065;-79
2022/11/12 01:59:01;;;;;;;34.80;10.70;;;;;;;;;;7392613;19;20062;-79
2022/11/12 02:01:26;;;;;;;22.40;9.05;;;;;;;;;;7391310;19;19995;-79
2022/11/12 02:03:51;;;;;;;19.13;8.88;;;;;;;;;;7395840;19;20497;-79
2022/11/12 02:06:19;;;;;;;20.70;9.18;;;;;;;;;;7391719;19;19999;-80
2022/11/12 02:08:44;;;;;;;19.17;9.63;;;;;;;;;;7393056;19;20032;-80
2022/11/12 02:11:16;;;;;;;21.05;9.05;;;;;;;;;;7392548;19;20558;-79
2022/11/12 02:14:02;;;;;;;31.17;8.38;;;;;;;;;;7393053;19;20326;-79
2022/11/12 02:16:37;;;;;;;17.92;8.52;;;;;;;;;;7392754;19;20017;-79
2022/11/12 02:19:04;;;;;;;25.55;9.07;;;;;;;;;;7392620;19;20010;-80
2022/11/12 02:21:30;;;;;;;23.08;9.23;;;;;;;;;;7390534;19;20010;-79
2022/11/12 02:23:57;;;;;;;25.42;9.73;;;;;;;;;;7390535;19;20019;-80
2022/11/12 02:26:23;;;;;;;23.48;9.63;;;;;;;;;;7392076;19;20016;-79
2022/11/12 02:28:48;;;;;;;20.15;9.02;;;;;;;;;;7392059;19;20002;-79
2022/11/12 02:31:14;;;;;;;21.88;9.55;;;;;;;;;;7391727;19;20679;-79
2022/11/12 02:33:39;;;;;;;17.73;8.75;;;;;;;;;;7386044;19;20029;-79
2022/11/12 02:36:04;;;;;;;19.55;8.70;;;;;;;;;;7388763;19;20007;-79
2022/11/12 02:38:30;;;;;;;24.40;8.60;;;;;;;;;;7390311;19;19998;-79
2022/11/12 02:40:55;;;;;;;24.95;9.55;;;;;;;;;;7389976;19;19999;-79
2022/11/12 02:43:20;;;;;;;26.33;8.93;;;;;;;;;;7388507;19;20003;-80
2022/11/12 02:45:46;;;;;;;29.95;8.70;;;;;;;;;;7389195;19;20066;-80
2022/11/12 02:48:11;;;;;;;30.25;9.30;;;;;;;;;;7391474;19;20011;-80
2022/11/12 02:50:37;;;;;;;37.53;9.43;;;;;;;;;;7390693;19;20461;-79
2022/11/12 02:53:02;;;;;;;42.85;9.20;;;;;;;;;;7388549;19;20443;-80
2022/11/12 02:55:27;;;;;;;52.22;9.50;;;;;;;;;;7390747;19;20054;-79
2022/11/12 02:57:57;;;;;;;75.80;10.50;;;;;;;;;;7388688;19;20115;-79
2022/11/12 03:00:22;;;;;;;103.80;10.88;;;;;;;;;;7390748;19;20006;-79
2022/11/12 03:03:20;;;;;;;82.57;10.25;;;;;;;;;;7388666;19;20077;-80
2022/11/12 03:05:39;;;;;;;34.35;9.48;;;;;;;;;;7390368;19;20015;-80
2022/11/12 03:08:06;;;;;;;60.67;8.55;;;;;;;;;;7390229;19;20002;-81
2022/11/12 03:10:32;;;;;;;82.72;9.93;;;;;;;;;;7389204;19;20019;-80
2022/11/12 03:12:59;;;;;;;33.03;9.45;;;;;;;;;;7387652;19;20002;-78
2022/11/12 03:15:26;;;;;;;111.63;11.68;;;;;;;;;;7390461;19;20543;-79
2022/11/12 03:17:51;;;;;;;110.60;11.70;;;;;;;;;;7388662;19;20528;-79
2022/11/12 03:20:17;;;;;;;134.75;11.25;;;;;;;;;;7388312;19;20022;-79
2022/11/12 03:22:42;;;;;;;48.58;9.40;;;;;;;;;;7386349;19;20482;-79
2022/11/12 03:25:08;;;;;;;30.52;9.38;;;;;;;;;;7390175;19;20006;-80
2022/11/12 03:27:34;;;;;;;41.88;9.07;;;;;;;;;;7390480;19;19999;-80
2022/11/12 03:30:00;;;;;;;55.13;8.45;;;;;;;;;;7390114;19;20037;-79
2022/11/12 03:32:25;;;;;;;66.70;9.27;;;;;;;;;;7388666;19;20027;-80
2022/11/12 03:34:50;;;;;;;81.43;9.25;;;;;;;;;;7388591;19;20055;-80
2022/11/12 03:37:16;;;;;;;94.28;9.52;;;;;;;;;;7390522;19;20062;-81
2022/11/12 03:39:41;;;;;;;38.33;8.00;;;;;;;;;;7388669;19;19999;-78
2022/11/12 03:42:07;;;;;;;108.95;9.38;;;;;;;;;;7387933;19;20003;-79
2022/11/12 03:44:32;;;;;;;110.57;9.77;;;;;;;;;;7388395;19;20123;-78
2022/11/12 03:46:57;;;;;;;114.97;9.93;;;;;;;;;;7392741;19;19999;-79
2022/11/12 03:49:23;;;;;;;96.15;9.77;;;;;;;;;;7392239;19;19999;-78
2022/11/12 03:51:48;;;;;;;68.72;8.80;;;;;;;;;;7388635;19;20399;-78
2022/11/12 03:54:13;;;;;;;30.55;8.15;;;;;;;;;;7389149;19;20438;-79
2022/11/12 03:56:39;;;;;;;151.98;10.43;;;;;;;;;;7388810;19;20015;-78
2022/11/12 03:59:04;;;;;;;144.18;10.07;;;;;;;;;;7388922;19;19999;-79
2022/11/12 04:01:30;;;;;;;86.53;8.50;;;;;;;;;;7387788;19;19999;-79
2022/11/12 04:03:56;;;;;;;25.10;8.40;;;;;;;;;;7388476;19;20066;-79
2022/11/12 04:09:05;;;;;;;97.68;9.73;;;;;;;;;;7388760;19;20495;-80
2022/11/12 04:11:30;;;;;;;81.47;9.20;;;;;;;;;;7387721;19;20003;-79
2022/11/12 04:13:56;;;;;;;32.70;8.52;;;;;;;;;;7388626;19;20009;-80
2022/11/12 04:21:58;;;;;;;26.25;9.10;;;;;;;;;;7386159;19;20507;-80
2022/11/12 04:27:22;;;;;;;26.85;8.63;;;;;;;;;;7388682;19;20011;-80
2022/11/12 04:32:34;;;;;;;34.40;9.15;;;;;;;;;;7387019;19;20009;-79
2022/11/12 04:35:00;;;;;;;67.90;9.10;;;;;;;;;;7387928;19;20070;-79
2022/11/12 04:37:27;;;;;;;30.85;8.20;;;;;;;;;;7387414;19;20363;-79
2022/11/12 04:39:53;;;;;;;85.47;8.70;;;;;;;;;;7387235;19;20002;-79
2022/11/12 04:45:09;;;;;;;30.77;8.75;;;;;;;;;;7388735;19;20018;-79
2022/11/12 04:47:40;;;;;;;66.18;9.00;;;;;;;;;;7391641;19;20503;-79
2022/11/12 04:50:15;;;;;;;;;;;;;;;;;;7397920;19;20644;-79
2022/11/12 04:52:40;;;;;;;90.15;10.05;;;;;;;;;;7391865;19;19987;-79
2022/11/12 04:55:07;;;;;;;76.07;8.93;;;;;;;;;;7386571;19;20010;-79
2022/11/12 04:57:32;;;;;;;72.72;8.88;;;;;;;;;;7387863;19;20413;-81
2022/11/12 04:59:57;;;;;;;105.43;9.40;;;;;;;;;;7387828;19;20015;-80
2022/11/12 05:02:23;;;;;;;30.50;8.52;;;;;;;;;;7385499;19;20022;-79
2022/11/12 05:04:48;;;;;;;48.88;8.50;;;;;;;;;;7388213;19;20010;-79
2022/11/12 05:07:14;;;;;;;25.40;7.70;;;;;;;;;;7387570;19;20013;-81
2022/11/12 05:09:40;;;;;;;52.95;7.72;;;;;;;;;;7387759;19;20468;-80
2022/11/12 05:12:06;;;;;;;30.88;7.85;;;;;;;;;;7386422;19;20027;-79
2022/11/12 05:14:31;;;;;;;23.52;7.57;;;;;;;;;;7387273;19;20027;-79
2022/11/12 05:16:57;;;;;;;33.20;7.32;;;;;;;;;;7387181;19;20003;-79
2022/11/12 05:19:22;;;;;;;30.13;7.35;;;;;;;;;;7384826;19;20003;-80
2022/11/12 05:22:05;;;;;;;27.48;7.10;;;;;;;;;;7384479;19;20002;-80
2022/11/12 05:24:33;;;;;;;23.73;7.32;;;;;;;;;;7390718;19;20376;-80
2022/11/12 05:26:58;;;;;;;50.75;8.75;;;;;;;;;;7388795;19;20033;-80
2022/11/12 05:29:24;;;;;;;18.42;6.15;;;;;;;;;;7388070;19;19999;-80
2022/11/12 05:31:49;;;;;;;22.80;6.35;;;;;;;;;;7386490;19;20158;-79
2022/11/12 05:34:15;;;;;;;22.65;6.63;;;;;;;;;;7386650;19;20035;-79
2022/11/12 05:36:40;;;;;;;18.13;6.85;;;;;;;;;;7393316;19;20002;-79
2022/11/12 05:39:05;;;;;;;32.15;7.28;;;;;;;;;;7395332;19;20470;-79
2022/11/12 05:41:31;;;;;;;19.35;7.13;;;;;;;;;;7392274;19;20516;-80
2022/11/12 05:43:56;;;;;;;18.80;7.00;;;;;;;;;;7396642;19;20015;-79
2022/11/12 05:46:22;;;;;;;19.90;6.63;;;;;;;;;;7393994;19;20003;-81
2022/11/12 05:48:47;;;;;;;13.20;6.45;;;;;;;;;;7393649;19;20023;-79
2022/11/12 05:51:13;;;;;;;24.00;6.90;;;;;;;;;;7393411;19;20434;-81
2022/11/12 05:53:39;;;;;;;16.80;6.32;;;;;;;;;;7386428;19;20066;-80
2022/11/12 05:56:06;;;;;;;19.58;7.32;;;;;;;;;;7397601;19;20018;-80
2022/11/12 05:58:32;;;;;;;16.83;7.15;;;;;;;;;;7393600;19;20010;-80
2022/11/12 06:00:58;;;;;;;16.40;7.07;;;;;;;;;;7392172;19;20005;-81
2022/11/12 06:03:24;;;;;;;15.73;6.63;;;;;;;;;;7394035;19;20005;-81
2022/11/12 06:05:50;;;;;;;26.33;6.95;;;;;;;;;;7392859;19;19998;-80
2022/11/12 06:08:15;;;;;;;14.57;6.68;;;;;;;;;;7391442;19;20002;-80
2022/11/12 06:10:44;;;;;;;22.70;7.70;;;;;;;;;;7329553;19;20002;-80
2022/11/12 06:13:09;;;;;;;17.85;6.97;;;;;;;;;;7393464;19;20485;-80
2022/11/12 06:15:34;;;;;;;13.88;7.25;;;;;;;;;;7394700;19;19995;-81
2022/11/12 06:18:00;;;;;;;18.42;7.30;;;;;;;;;;7394016;19;20002;-80
2022/11/12 06:20:25;;;;;;;14.13;6.72;;;;;;;;;;7390128;19;20005;-80
2022/11/12 06:22:50;;;;;;;16.80;6.63;;;;;;;;;;7389755;19;20009;-80
2022/11/12 06:25:16;;;;;;;25.95;7.15;;;;;;;;;;7396204;19;20344;-80
2022/11/12 06:27:44;;;;;;;14.68;7.10;;;;;;;;;;7392857;19;20002;-83
2022/11/12 06:30:10;;;;;;;19.13;6.97;;;;;;;;;;7390909;19;20020;-81
2022/11/12 06:32:36;;;;;;;15.35;6.72;;;;;;;;;;7392489;19;20468;-80
2022/11/12 06:35:01;;;;;;;21.58;7.05;;;;;;;;;;7392264;19;20002;-79
2022/11/12 06:37:26;;;;;;;15.20;7.50;;;;;;;;;;7393987;19;19995;-78
2022/11/12 06:39:51;;;;;;;20.15;7.10;;;;;;;;;;7393059;19;19995;-79
2022/11/12 06:42:25;;;;;;;16.52;6.55;;;;;;;;;;7387659;19;20002;-82
2022/11/12 06:44:51;;;;;;;15.75;6.68;;;;;;;;;;7389686;19;20004;-80
2022/11/12 06:47:19;;;;;;;18.73;7.18;;;;;;;;;;7391619;19;20063;-81
2022/11/12 06:49:48;;;;;;;15.52;7.43;;;;;;;;;;7391383;19;19995;-81
2022/11/12 06:52:14;;;;;;;17.73;7.25;;;;;;;;;;7388338;19;20375;-79
2022/11/12 06:54:39;;;;;;;17.80;7.35;;;;;;;;;;7392209;19;19994;-79
2022/11/12 06:57:05;;;;;;;18.75;7.20;;;;;;;;;;7390490;19;20498;-79
2022/11/12 06:59:30;;;;;;;17.02;7.93;;;;;;;;;;7391335;19;20354;-79
2022/11/12 07:01:55;;;;;;;17.10;7.60;;;;;;;;;;7381263;19;20479;-79
2022/11/12 07:04:23;;;;;;;13.90;7.38;;;;;;;;;;7385198;19;20018;-76
2022/11/12 07:06:48;;;;;;;22.55;7.72;;;;;;;;;;7387502;19;20015;-76
2022/11/12 07:09:13;;;;;;;16.45;8.18;;;;;;;;;;7385605;19;20015;-76
2022/11/12 07:11:39;;;;;;;23.33;9.93;;;;;;;;;;7387280;19;20460;-74
2022/11/12 07:14:05;;;;;;;23.13;9.07;;;;;;;;;;7384017;19;20345;-75
2022/11/12 07:16:31;;;;;;;19.45;8.70;;;;;;;;;;7387416;19;20014;-73
2022/11/12 07:18:57;;;;;;;23.20;8.52;;;;;;;;;;7387395;19;20003;-77
2022/11/12 07:21:22;;;;;;;38.83;9.60;;;;;;;;;;7385725;19;20011;-74
2022/11/12 07:23:48;;;;;;;23.58;10.30;;;;;;;;;;7387351;19;20007;-74
2022/11/12 07:26:26;;;;;;;21.45;9.80;;;;;;;;;;7388357;19;20008;-75
2022/11/12 07:28:54;;;;;;;29.40;10.05;;;;;;;;;;7387074;19;20006;-75
2022/11/12 07:31:20;;;;;;;24.00;8.60;;;;;;;;;;7388827;19;20037;-75
2022/11/12 07:33:48;;;;;;;22.33;9.68;;;;;;;;;;7384552;19;20014;-76
2022/11/12 07:36:18;;;;;;;24.30;9.32;;;;;;;;;;7388569;19;20018;-75
2022/11/12 07:38:44;;;;;;;20.67;9.25;;;;;;;;;;7388848;19;19998;-75
2022/11/12 07:41:15;;;;;;;18.90;9.30;;;;;;;;;;7385915;19;20025;-75
2022/11/12 07:43:42;;;;;;;24.10;9.85;;;;;;;;;;7386827;19;20006;-75
2022/11/12 07:46:13;;;;;;;29.00;9.43;;;;;;;;;;7385656;19;20022;-75
2022/11/12 07:48:39;;;;;;;23.67;8.95;;;;;;;;;;7388560;19;20013;-75
2022/11/12 07:51:26;;;;;;;24.48;10.20;;;;;;;;;;7386159;19;20106;-75
2022/11/12 07:53:53;;;;;;;25.10;9.43;;;;;;;;;;7387127;19;20010;-74
2022/11/12 07:56:21;;;;;;;24.58;9.10;;;;;;;;;;7388781;19;20003;-75
2022/11/12 07:58:49;;;;;;;20.73;9.25;;;;;;;;;;7388227;19;19999;-75
2022/11/12 08:01:26;;;;;;;19.48;9.02;;;;;;;;;;7384630;19;20007;-75
2022/11/12 08:03:52;;;;;;;18.45;8.82;;;;;;;;;;7388229;19;20010;-79
2022/11/12 08:06:17;;;;;;;20.73;9.05;;;;;;;;;;7386815;19;20357;-77
2022/11/12 08:08:42;;;;;;;25.90;9.57;;;;;;;;;;7388657;19;20026;-76
2022/11/12 08:11:08;;;;;;;28.98;8.88;;;;;;;;;;7386116;19;20361;-76
2022/11/12 08:13:33;;;;;;;22.90;8.82;;;;;;;;;;7387220;19;20002;-78
2022/11/12 08:15:58;;;;;;;19.25;8.80;;;;;;;;;;7389169;19;20571;-76
2022/11/12 08:18:25;;;;;;;21.63;9.30;;;;;;;;;;7405862;19;20005;-76
2022/11/12 08:21:01;;;;;;;19.38;9.32;;;;;;;;;;7387476;19;20003;-77
2022/11/12 08:23:27;;;;;;;17.88;8.82;;;;;;;;;;7387590;19;20027;-76
2022/11/12 08:25:56;;;;;;;25.67;10.60;;;;;;;;;;7390166;19;20460;-75
2022/11/12 08:28:22;;;;;;;22.10;9.30;;;;;;;;;;7388172;19;20027;-73
2022/11/12 08:30:47;;;;;;;21.80;9.00;;;;;;;;;;7386094;19;20131;-74
2022/11/12 08:33:12;;;;;;;18.73;8.93;;;;;;;;;;7383918;19;20006;-75
2022/11/12 08:35:38;;;;;;;32.38;10.43;;;;;;;;;;7387713;19;20073;-74
2022/11/12 08:38:06;;;;;;;25.00;9.25;;;;;;;;;;7384134;19;20007;-73
2022/11/12 08:40:32;;;;;;;22.95;8.73;;;;;;;;;;7387031;19;20006;-76
2022/11/12 08:42:59;;;;;;;20.25;9.80;;;;;;;;;;7383588;19;20396;-75
2022/11/12 08:45:25;;;;;;;16.70;8.52;;;;;;;;;;7387068;19;20516;-75
2022/11/12 08:47:51;;;;;;;26.95;9.25;;;;;;;;;;7384432;19;20014;-74
2022/11/12 08:50:16;;;;;;;22.33;9.85;;;;;;;;;;7386589;19;20010;-75
2022/11/12 08:52:42;;;;;;;25.48;10.35;;;;;;;;;;7384350;19;20367;-73
2022/11/12 08:55:07;;;;;;;29.08;10.32;;;;;;;;;;7386438;19;20003;-74
2022/11/12 08:57:39;;;;;;;26.42;10.15;;;;;;;;;;7387080;19;20003;-75
2022/11/12 09:00:05;;;;;;;31.45;10.88;;;;;;;;;;7385516;19;20003;-77
2022/11/12 09:02:31;;;;;;;26.25;11.07;;;;;;;;;;7389917;19;20086;-77
2022/11/12 09:04:56;;;;;;;28.65;11.63;;;;;;;;;;7396754;19;20024;-75
2022/11/12 09:07:21;;;;;;;25.40;10.52;;;;;;;;;;7400493;19;19999;-76
2022/11/12 09:09:47;;;;;;;25.98;12.48;;;;;;;;;;7393811;19;20007;-76
2022/11/12 09:12:17;;;;;;;27.65;11.55;;;;;;;;;;7390605;19;20005;-77
2022/11/12 09:14:43;;;;;;;34.85;12.07;;;;;;;;;;7393404;19;19998;-76
2022/11/12 09:17:08;;;;;;;26.08;11.88;;;;;;;;;;7391696;19;20743;-77
2022/11/12 09:19:33;;;;;;;27.58;11.60;;;;;;;;;;7392249;19;20653;-76
2022/11/12 09:21:59;;;;;;;25.83;11.77;;;;;;;;;;7388807;19;20014;-76
2022/11/12 09:24:24;;;;;;;24.08;12.48;;;;;;;;;;7395498;19;20483;-76
2022/11/12 09:26:52;;;;;;;24.67;12.35;;;;;;;;;;7395063;19;20354;-76
2022/11/12 09:29:18;;;;;;;28.38;11.93;;;;;;;;;;7388816;19;20003;-76
2022/11/12 09:31:43;;;;;;;30.92;12.35;;;;;;;;;;7393742;19;19998;-77
2022/11/12 09:34:08;;;;;;;29.25;12.55;;;;;;;;;;7389609;19;20002;-76
2022/11/12 09:36:34;;;;;;;29.23;12.68;;;;;;;;;;7394546;19;19994;-77
2022/11/12 09:38:59;;;;;;;25.75;11.80;;;;;;;;;;7393293;19;19999;-77
2022/11/12 09:41:31;;;;;;;27.92;13.25;;;;;;;;;;7392060;19;20006;-77
2022/11/12 09:44:01;;;;;;;27.05;13.80;;;;;;;;;;7393049;19;20006;-76
2022/11/12 09:46:35;;;;;;;22.35;12.00;;;;;;;;;;7393597;19;19999;-77
2022/11/12 09:49:14;;;;;;;27.58;11.85;;;;;;;;;;7392113;19;20003;-77
2022/11/12 09:51:52;;;;;;;24.42;10.73;;;;;;;;;;7389243;19;20022;-76
2022/11/12 09:54:29;;;;;;;22.98;11.25;;;;;;;;;;7393202;19;20082;-76
2022/11/12 09:56:55;;;;;;;21.42;10.70;;;;;;;;;;7392644;19;20056;-76
2022/11/12 09:59:22;;;;;;;23.77;10.93;;;;;;;;;;7391234;19;20016;-77
2022/11/12 10:02:17;;;;;;;25.65;11.00;;;;;;;;;;7389195;19;20333;-75
2022/11/12 10:05:11;;;;;;;24.50;12.25;;;;;;;;;;7388565;19;20014;-76
2022/11/12 10:08:01;;;;;;;21.70;10.57;;;;;;;;;;7391789;19;19990;-76
2022/11/12 10:10:48;;;;;;;23.45;11.10;;;;;;;;;;7389778;19;20035;-76
2022/11/12 10:13:27;;;;;;;24.88;11.75;;;;;;;;;;7386648;19;20027;-74
2022/11/12 10:16:42;;;;;;;20.77;11.55;;;;;;;;;;7392733;19;20736;-75
2022/11/12 10:19:26;;;;;;;24.17;11.73;;;;;;;;;;7392894;19;20323;-76
2022/11/12 10:22:06;;;;;;;24.75;12.55;;;;;;;;;;7390766;19;20007;-75
2022/11/12 10:24:37;;;;;;;22.35;10.52;;;;;;;;;;7396340;19;20029;-76
2022/11/12 10:27:16;;;;;;;24.33;11.35;;;;;;;;;;7390986;19;20003;-75
2022/11/12 10:29:57;;;;;;;27.27;12.48;;;;;;;;;;7392316;19;20002;-76
2022/11/12 10:32:22;;;;;;;25.70;12.87;;;;;;;;;;7390884;19;20003;-76
2022/11/12 10:34:47;;;;;;;25.55;12.30;;;;;;;;;;7396038;19;20005;-76
2022/11/12 10:37:34;;;;;;;27.02;14.38;;;;;;;;;;7393582;19;20347;-76
2022/11/12 10:40:20;;;;;;;30.63;13.05;;;;;;;;;;7394229;19;20007;-76
2022/11/12 10:43:00;;;;;;;28.08;14.77;;;;;;;;;;7392092;19;20011;-77
2022/11/12 10:45:26;;;;;;;32.67;13.98;;;;;;;;;;7395354;19;20408;-77
2022/11/12 10:47:51;;;;;;;28.67;15.25;;;;;;;;;;7395113;19;20015;-76
2022/11/12 10:50:20;;;;;;;30.58;14.75;;;;;;;;;;7395154;19;20003;-77
2022/11/12 10:52:55;;;;;;;34.05;16.40;;;;;;;;;;7393145;19;20006;-77
2022/11/12 10:55:35;;;;;;;35.20;15.90;;;;;;;;;;7395710;19;20018;-77
2022/11/12 10:58:08;;;;;;;33.35;16.42;;;;;;;;;;7384688;19;20006;-75
2022/11/12 11:00:35;;;;;;;36.45;17.23;;;;;;;;;;7389376;19;20034;-77
2022/11/12 11:03:19;;;;;;;36.78;17.08;;;;;;;;;;7386900;19;20757;-76
2022/11/12 11:05:55;;;;;;;31.98;17.45;;;;;;;;;;7387500;19;20010;-76
2022/11/12 11:08:36;;;;;;;39.25;16.77;;;;;;;;;;7389051;19;19999;-74
2022/11/12 11:11:16;;;;;;;34.28;18.73;;;;;;;;;;7387305;19;19998;-76
2022/11/12 11:13:42;;;;;;;32.13;16.33;;;;;;;;;;7386207;19;20002;-76
2022/11/12 11:16:21;;;;;;;32.42;16.52;;;;;;;;;;7390682;19;20473;-76
2022/11/12 11:18:51;;;;;;;29.98;17.25;;;;;;;;;;7388033;19;20033;-76
2022/11/12 11:21:36;;;;;;;33.07;17.03;;;;;;;;;;7390288;19;19999;-76
2022/11/12 11:24:41;;;;;;;32.80;16.85;;;;;;;;;;7389167;19;20362;-75
2022/11/12 11:27:26;;;;;;;36.22;18.05;;;;;;;;;;7390196;19;20013;-76
2022/11/12 11:30:17;;;;;;;32.13;18.10;;;;;;;;;;7388471;19;20010;-76
2022/11/12 11:33:07;;;;;;;34.15;16.65;;;;;;;;;;7386168;19;20354;-75
2022/11/12 11:36:02;;;;;;;35.55;17.85;;;;;;;;;;7390860;19;20006;-76
2022/11/12 11:38:40;;;;;;;33.08;17.00;;;;;;;;;;7389697;19;20011;-75
2022/11/12 11:41:30;;;;;;;33.28;17.75;;;;;;;;;;7388181;19;20636;-75
2022/11/12 11:44:09;;;;;;;31.80;17.67;;;;;;;;;;7387800;19;19995;-76
2022/11/12 11:47:23;;;;;;;36.25;18.10;;;;;;;;;;7389576;19;20006;-76
2022/11/12 11:50:10;;;;;;;37.88;18.38;;;;;;;;;;7382742;19;20504;-76
2022/11/12 11:52:49;;;;;;;37.03;18.23;;;;;;;;;;7386065;19;20023;-76
2022/11/12 11:55:14;;;;;;;33.10;18.48;;;;;;;;;;7388212;19;20006;-76
2022/11/12 11:58:03;;;;;;;35.90;18.48;;;;;;;;;;7389737;19;20318;-76
2022/11/12 12:00:41;;;;;;;30.73;18.00;;;;;;;;;;7389470;19;20326;-75
2022/11/12 12:03:29;;;;;;;31.52;17.08;;;;;;;;;;7387564;19;20345;-75
2022/11/12 12:06:17;;;;;;;32.80;17.60;;;;;;;;;;7388773;19;20022;-75
2022/11/12 12:08:58;;;;;;;32.58;17.25;;;;;;;;;;7389053;19;20104;-76
2022/11/12 12:11:58;;;;;;;33.33;17.73;;;;;;;;;;7388670;19;19995;-77
2022/11/12 12:14:47;;;;;;;33.22;17.70;;;;;;;;;;7388770;19;19991;-76
2022/11/12 12:17:30;;;;;;;30.60;17.42;;;;;;;;;;7388410;19;19999;-76
2022/11/12 12:20:05;;;;;;;31.65;16.40;;;;;;;;;;7386915;19;19998;-76
2022/11/12 12:22:49;;;;;;;30.73;16.48;;;;;;;;;;7386336;19;19998;-76
2022/11/12 12:25:18;;;;;;;33.22;17.98;;;;;;;;;;7388711;19;20023;-76
2022/11/12 12:28:14;;;;;;;32.17;17.25;;;;;;;;;;7388489;19;20002;-76
2022/11/12 12:30:44;;;;;;;35.10;18.63;;;;;;;;;;7387133;19;19995;-77
2022/11/12 12:33:39;;;;;;;28.63;17.35;;;;;;;;;;7383931;19;20011;-76
2022/11/12 12:36:09;;;;;;;29.60;16.75;;;;;;;;;;7386368;19;20002;-75
2022/11/12 12:38:57;;;;;;;31.58;17.27;;;;;;;;;;7391827;19;20346;-78
2022/11/12 12:41:38;;;;;;;30.42;16.50;;;;;;;;;;7386867;19;20006;-81
2022/11/12 12:44:07;;;;;;;31.38;17.27;;;;;;;;;;7397765;19;19998;-82
2022/11/12 12:46:39;;;;;;;32.15;17.45;;;;;;;;;;7408409;19;20006;-76
2022/11/12 12:49:06;;;;;;;31.73;18.20;;;;;;;;;;7405717;19;20510;-85
2022/11/12 12:51:34;;;;;;;31.65;18.85;;;;;;;;;;7407891;19;20523;-89
2022/11/12 12:53:59;;;;;;;32.90;18.13;;;;;;;;;;7403666;19;20017;-86
2022/11/12 12:56:27;;;;;;;31.48;17.63;;;;;;;;;;7410936;19;19998;-84
2022/11/12 12:58:54;;;;;;;33.60;17.73;;;;;;;;;;7419796;19;19999;-88
2022/11/12 13:01:22;;;;;;;33.75;19.13;;;;;;;;;;7412581;19;20009;-89
2022/11/12 13:03:57;;;;;;;34.08;18.65;;;;;;;;;;7414580;19;20002;-85
2022/11/12 13:06:24;;;;;;;33.38;18.50;;;;;;;;;;7413013;19;20002;-88
2022/11/12 13:09:05;;;;;;;32.60;18.30;;;;;;;;;;7411499;19;19995;-86
2022/11/12 13:14:38;;;;;;;33.13;18.75;;;;;;;;;;7437634;19;19981;-89
2022/11/12 13:17:14;;;;;;;30.80;18.10;;;;;;;;;;7435853;19;20002;-89
2022/11/12 13:19:57;;;;;;;33.10;18.33;;;;;;;;;;7416670;19;20232;-87
2022/11/12 13:22:23;;;;;;;30.38;18.45;;;;;;;;;;7408845;19;20547;-89
2022/11/12 13:25:06;;;;;;;33.15;18.35;;;;;;;;;;7410390;19;20006;-88
2022/11/12 13:27:44;;;;;;;32.78;19.23;;;;;;;;;;7409484;19;19998;-88
2022/11/12 13:30:12;;;;;;;35.53;19.33;;;;;;;;;;7398968;19;20006;-87
2022/11/12 13:32:42;;;;;;;34.33;18.48;;;;;;;;;;7399389;19;20012;-88
2022/11/12 13:35:17;;;;;;;39.53;20.98;;;;;;;;;;7401283;19;20472;-89
2022/11/12 13:37:43;;;;;;;36.75;19.85;;;;;;;;;;7405076;19;19998;-89
2022/11/12 13:40:13;;;;;;;37.75;19.88;;;;;;;;;;7405290;19;20341;-89
2022/11/12 13:42:48;;;;;;;37.08;20.38;;;;;;;;;;7400933;19;20074;-90
2022/11/12 13:45:15;;;;;;;34.95;19.38;;;;;;;;;;7403540;19;20010;-90
2022/11/12 13:47:40;;;;;;;32.97;19.48;;;;;;;;;;7403547;19;20027;-88
2022/11/12 13:50:12;;;;;;;38.55;19.27;;;;;;;;;;7402336;19;20003;-89
2022/11/12 13:52:39;;;;;;;33.08;18.55;;;;;;;;;;7403997;19;20003;-88
2022/11/12 13:55:25;;;;;;;33.17;20.13;;;;;;;;;;7400683;19;20117;-88
2022/11/12 13:57:53;;;;;;;35.45;20.02;;;;;;;;;;7395764;19;20003;-88
2022/11/12 14:00:23;;;;;;;36.72;20.02;;;;;;;;;;7397722;19;19998;-91
2022/11/12 14:03:00;;;;;;;35.92;20.88;;;;;;;;;;7393623;19;19998;-92
2022/11/12 14:05:32;;;;;;;32.22;19.10;;;;;;;;;;7396751;19;19998;-89
2022/11/12 14:08:09;;;;;;;33.75;18.65;;;;;;;;;;7398886;19;20030;-91
2022/11/12 14:11:08;;;;;;;32.55;18.88;;;;;;;;;;7396763;19;20009;-90
2022/11/12 14:13:36;;;;;;;33.42;18.95;;;;;;;;;;7394455;19;20058;-90
2022/11/12 14:16:30;;;;;;;30.55;18.83;;;;;;;;;;7397223;19;19994;-90
2022/11/12 14:19:36;;;;;;;35.28;18.40;;;;;;;;;;7398140;19;20071;-91
2022/11/12 14:22:11;;;;;;;33.20;17.55;;;;;;;;;;7393466;19;20002;-91
2022/11/12 14:24:37;;;;;;;33.65;17.55;;;;;;;;;;7406718;19;20059;-89
2022/11/12 14:27:02;;;;;;;34.78;18.73;;;;;;;;;;7410008;19;20003;-89
2022/11/12 14:29:28;;;;;;;36.03;19.48;;;;;;;;;;7397985;19;20448;-90
2022/11/12 14:32:04;;;;;;;33.47;18.38;;;;;;;;;;7394499;19;20029;-89
2022/11/12 14:34:31;;;;;;;34.38;19.13;;;;;;;;;;7396930;19;19999;-90
2022/11/12 14:36:58;;;;;;;35.72;20.33;;;;;;;;;;7394628;19;20078;-91
2022/11/12 14:39:25;;;;;;;32.72;18.92;;;;;;;;;;7397391;19;20007;-90
2022/11/12 14:41:51;;;;;;;36.83;20.55;;;;;;;;;;7393413;19;20012;-90
2022/11/12 14:44:20;;;;;;;44.40;21.20;;;;;;;;;;7394988;19;20006;-91
2022/11/12 14:46:48;;;;;;;44.08;21.33;;;;;;;;;;7394119;19;20003;-90
2022/11/12 14:49:36;;;;;;;41.20;21.20;;;;;;;;;;7396627;19;20070;-90
2022/11/12 14:52:19;;;;;;;42.97;21.20;;;;;;;;;;7398088;19;19998;-90
2022/11/12 14:54:50;;;;;;;39.42;20.73;;;;;;;;;;7395742;19;20062;-91
2022/11/12 14:57:24;;;;;;;38.13;19.20;;;;;;;;;;7395360;19;20022;-90
2022/11/12 14:59:49;;;;;;;39.45;20.73;;;;;;;;;;7396955;19;20002;-90
2022/11/12 15:02:31;;;;;;;43.13;20.30;;;;;;;;;;7394011;19;20015;-90